Terminal Aerodrome Forecast
Issued by NWS

Home | Current Version | Previous Version | Text Only | Print | Product List | Glossary On
Versions: 1 2 3 4 5 6 7 8 9 10 11 12 13 14 15 16 17
327
FTUS44 KBMX 261736
TAFTCL
TAF
KTCL 261736Z 2618/2718 08006KT P6SM VCSH SCT050 SCT250
     FM270200 00000KT P6SM FEW120
     FM271400 11004KT P6SM SCT090=

USA.gov is the U.S. government's official web portal to all federal, state and local government web resources and services.